createdAt,value
2022-07-27T00:00:09.256Z,66.16
2022-07-27T00:01:09.292Z,65.99
2022-07-27T00:02:09.193Z,65.89
2022-07-27T00:03:09.186Z,66.60
2022-07-27T00:04:09.235Z,66.60
2022-07-27T00:05:09.188Z,67.00
2022-07-27T00:06:09.156Z,67.30
2022-07-27T00:07:09.167Z,67.91
2022-07-27T00:08:09.131Z,67.30
2022-07-27T00:09:09.684Z,67.40
2022-07-27T00:10:09.118Z,67.80
2022-07-27T00:11:09.095Z,67.60
2022-07-27T00:12:09.083Z,66.90
2022-07-27T00:13:09.094Z,65.39
2022-07-27T00:14:09.114Z,66.90
2022-07-27T00:15:09.061Z,66.50
2022-07-27T00:16:09.135Z,66.39
2022-07-27T00:17:09.030Z,66.70
2022-07-27T00:18:09.012Z,66.39
2022-07-27T00:19:09.793Z,66.70
2022-07-27T00:20:09.025Z,66.30
2022-07-27T00:21:08.992Z,66.60
2022-07-27T00:22:08.982Z,66.70
2022-07-27T00:23:08.960Z,66.70
2022-07-27T00:24:08.949Z,66.30
2022-07-27T00:25:08.958Z,66.09
2022-07-27T00:26:08.929Z,66.30
2022-07-27T00:27:08.930Z,65.99
2022-07-27T00:28:08.915Z,66.50
2022-07-27T00:29:09.364Z,65.89
2022-07-27T00:30:08.891Z,65.79
2022-07-27T00:31:08.960Z,65.19
2022-07-27T00:32:12.601Z,65.89
2022-07-27T00:33:08.843Z,66.30
2022-07-27T00:34:08.856Z,66.30
2022-07-27T00:35:08.837Z,65.89
2022-07-27T00:36:08.821Z,66.70
2022-07-27T00:37:08.799Z,65.92
2022-07-27T00:38:08.793Z,66.50
2022-07-27T00:39:09.125Z,66.42
2022-07-27T00:40:08.799Z,66.39
2022-07-27T00:41:08.762Z,64.61
2022-07-27T00:42:08.826Z,66.02
2022-07-27T00:43:08.772Z,66.33
2022-07-27T00:44:08.725Z,66.63
2022-07-27T00:45:08.742Z,66.93
2022-07-27T00:46:08.706Z,66.83
2022-07-27T00:47:08.801Z,66.83
2022-07-27T00:48:08.704Z,66.83
2022-07-27T00:49:09.201Z,67.87
2022-07-27T00:50:08.671Z,67.94
2022-07-27T00:51:08.638Z,68.37
2022-07-27T00:52:08.632Z,67.97
2022-07-27T00:53:08.644Z,68.48
2022-07-27T00:54:08.605Z,67.57
2022-07-27T00:55:08.609Z,66.05
2022-07-27T00:56:08.585Z,66.39
2022-07-27T00:57:08.575Z,67.16
2022-07-27T00:58:08.568Z,66.56
2022-07-27T00:59:09.102Z,67.67
2022-07-27T01:00:08.555Z,67.50
2022-07-27T01:01:08.534Z,67.50
2022-07-27T01:02:11.289Z,68.71
2022-07-27T01:03:09.510Z,67.60
2022-07-27T01:04:08.499Z,68.91
2022-07-27T01:05:08.509Z,69.11
2022-07-27T01:06:08.476Z,69.01
2022-07-27T01:07:08.490Z,68.30
2022-07-27T01:08:08.453Z,68.33
2022-07-27T01:09:08.791Z,68.91
2022-07-27T01:10:08.444Z,69.24
2022-07-27T01:11:08.417Z,68.84
2022-07-27T01:12:08.397Z,69.04
2022-07-27T01:13:12.610Z,69.15
2022-07-27T01:14:08.401Z,69.35
2022-07-27T01:15:08.378Z,68.84
2022-07-27T01:16:08.404Z,68.64
2022-07-27T01:17:08.343Z,69.04
2022-07-27T01:18:08.325Z,68.64
2022-07-27T01:19:08.470Z,69.45
2022-07-27T01:20:08.332Z,68.84
2022-07-27T01:21:08.375Z,69.55
2022-07-27T01:22:08.311Z,69.68
2022-07-27T01:23:08.305Z,69.08
2022-07-27T01:24:08.373Z,70.09
2022-07-27T01:25:08.263Z,69.98
2022-07-27T01:26:08.236Z,69.38
2022-07-27T01:27:08.248Z,69.58
2022-07-27T01:28:08.228Z,69.58
2022-07-27T01:29:08.397Z,69.48
2022-07-27T01:30:08.221Z,69.89
2022-07-27T01:31:08.278Z,69.38
2022-07-27T01:32:08.240Z,70.09
2022-07-27T01:33:08.169Z,70.09
2022-07-27T01:34:08.145Z,69.78
2022-07-27T01:35:08.160Z,70.29
2022-07-27T01:36:08.137Z,69.58
2022-07-27T01:37:08.125Z,70.49
2022-07-27T01:38:08.105Z,70.12
2022-07-27T01:39:08.318Z,70.39
2022-07-27T01:40:08.073Z,70.29
2022-07-27T01:41:08.089Z,70.42
2022-07-27T01:42:08.056Z,70.62
2022-07-27T01:43:08.044Z,70.53
2022-07-27T01:44:08.047Z,70.62
2022-07-27T01:45:08.020Z,70.42
2022-07-27T01:46:08.071Z,70.93
2022-07-27T01:47:13.908Z,71.33
2022-07-27T01:48:08.979Z,71.64
2022-07-27T01:49:08.172Z,71.53
2022-07-27T01:50:07.966Z,71.53
2022-07-27T01:51:07.967Z,70.83
2022-07-27T01:52:07.939Z,70.73
2022-07-27T01:53:09.592Z,70.83
2022-07-27T01:54:07.914Z,71.03
2022-07-27T01:55:07.909Z,70.53
2022-07-27T01:56:07.910Z,71.03
2022-07-27T01:57:07.882Z,70.66
2022-07-27T01:58:07.870Z,70.22
2022-07-27T01:59:08.009Z,70.83
2022-07-27T02:00:08.849Z,71.03
2022-07-27T02:01:08.024Z,70.22
2022-07-27T02:02:07.960Z,70.66
2022-07-27T02:03:07.812Z,70.56
2022-07-27T02:04:07.800Z,70.66
2022-07-27T02:05:07.938Z,70.76
2022-07-27T02:06:07.795Z,71.06
2022-07-27T02:07:07.767Z,71.17
2022-07-27T02:08:07.758Z,71.57
2022-07-27T02:09:07.879Z,71.77
2022-07-27T02:10:07.736Z,71.26
2022-07-27T02:11:07.772Z,71.37
2022-07-27T02:12:07.709Z,71.77
2022-07-27T02:13:21.941Z,71.57
2022-07-27T02:14:08.701Z,71.57
2022-07-27T02:15:07.677Z,71.57
2022-07-27T02:16:09.694Z,72.78
2022-07-27T02:17:08.674Z,72.28
2022-07-27T02:18:26.814Z,72.38
2022-07-27T02:19:08.894Z,72.72
2022-07-27T02:20:07.622Z,72.72
2022-07-27T02:21:07.631Z,72.41
2022-07-27T02:22:07.599Z,72.72
2022-07-27T02:23:07.617Z,73.12
2022-07-27T02:24:07.573Z,73.32
2022-07-27T02:25:07.556Z,72.72
2022-07-27T02:26:07.570Z,72.31
2022-07-27T02:27:07.538Z,72.61
2022-07-27T02:28:07.523Z,73.12
2022-07-27T02:29:07.553Z,72.92
2022-07-27T02:30:07.504Z,72.61
2022-07-27T02:31:07.518Z,73.22
2022-07-27T02:32:07.484Z,73.12
2022-07-27T02:33:07.528Z,72.44
2022-07-27T02:34:07.465Z,73.02
2022-07-27T02:35:19.518Z,73.25
2022-07-27T02:36:08.452Z,72.85
2022-07-27T02:37:07.436Z,72.24
2022-07-27T02:38:07.424Z,72.85
2022-07-27T02:39:07.403Z,73.86
2022-07-27T02:40:07.414Z,72.95
2022-07-27T02:41:07.392Z,73.36
2022-07-27T02:42:07.377Z,73.46
2022-07-27T02:43:07.361Z,73.36
2022-07-27T02:44:07.350Z,73.25
2022-07-27T02:45:07.344Z,72.75
2022-07-27T02:46:07.438Z,72.65
2022-07-27T02:47:07.398Z,73.56
2022-07-27T02:48:08.515Z,73.56
2022-07-27T02:49:07.383Z,73.46
2022-07-27T02:50:07.293Z,73.36
2022-07-27T02:51:07.286Z,73.80
2022-07-27T02:52:07.271Z,73.80
2022-07-27T02:53:07.290Z,73.29
2022-07-27T02:54:07.239Z,73.49
2022-07-27T02:55:07.221Z,74.30
2022-07-27T02:56:07.239Z,73.49
2022-07-27T02:57:07.197Z,73.49
2022-07-27T02:58:07.189Z,73.80
2022-07-27T02:59:07.171Z,73.80
2022-07-27T03:00:07.170Z,74.20
2022-07-27T03:01:07.255Z,74.20
2022-07-27T03:02:07.138Z,74.20
2022-07-27T03:03:07.130Z,74.40
2022-07-27T03:04:07.220Z,74.91
2022-07-27T03:05:07.105Z,74.20
2022-07-27T03:06:07.120Z,73.59
2022-07-27T03:07:07.094Z,73.19
2022-07-27T03:08:07.094Z,73.90
2022-07-27T03:09:07.076Z,73.29
2022-07-27T03:10:07.050Z,73.80
2022-07-27T03:11:07.054Z,74.00
2022-07-27T03:12:07.024Z,74.20
2022-07-27T03:13:07.011Z,73.09
2022-07-27T03:14:07.010Z,74.20
2022-07-27T03:15:07.003Z,74.81
2022-07-27T03:16:07.048Z,74.54
2022-07-27T03:17:06.967Z,75.04
2022-07-27T03:18:06.963Z,74.54
2022-07-27T03:19:06.944Z,74.44
2022-07-27T03:20:08.063Z,75.65
2022-07-27T03:21:06.967Z,75.45
2022-07-27T03:22:06.932Z,74.64
2022-07-27T03:23:06.936Z,74.64
2022-07-27T03:24:06.891Z,74.54
2022-07-27T03:25:06.884Z,74.54
2022-07-27T03:26:06.885Z,75.35
2022-07-27T03:27:06.856Z,75.76
2022-07-27T03:28:06.845Z,75.85
2022-07-27T03:29:06.855Z,75.76
2022-07-27T03:30:06.823Z,75.55
2022-07-27T03:31:06.886Z,75.35
2022-07-27T03:32:06.796Z,75.04
2022-07-27T03:33:06.797Z,75.65
2022-07-27T03:34:06.774Z,75.85
2022-07-27T03:35:06.819Z,75.25
2022-07-27T03:36:06.770Z,76.56
2022-07-27T03:37:06.742Z,76.56
2022-07-27T03:38:06.747Z,76.36
2022-07-27T03:39:06.737Z,75.65
2022-07-27T03:40:06.731Z,76.36
2022-07-27T03:41:06.749Z,74.95
2022-07-27T03:42:06.685Z,75.76
2022-07-27T03:43:06.676Z,76.46
2022-07-27T03:44:06.668Z,76.26
2022-07-27T03:45:06.656Z,76.46
2022-07-27T03:46:06.713Z,76.46
2022-07-27T03:47:06.642Z,76.67
2022-07-27T03:48:06.626Z,76.56
2022-07-27T03:49:13.971Z,76.67
2022-07-27T03:50:07.595Z,76.26
2022-07-27T03:51:06.600Z,76.46
2022-07-27T03:52:06.574Z,75.55
2022-07-27T03:53:06.579Z,74.95
2022-07-27T03:54:06.557Z,75.45
2022-07-27T03:55:06.536Z,75.25
2022-07-27T03:56:06.543Z,75.35
2022-07-27T03:57:06.517Z,76.67
2022-07-27T03:58:06.512Z,75.65
2022-07-27T03:59:06.518Z,75.35
2022-07-27T04:00:06.487Z,75.25
2022-07-27T04:01:06.542Z,75.65
2022-07-27T04:02:06.501Z,76.26
2022-07-27T04:03:06.449Z,75.65
2022-07-27T04:04:06.436Z,75.45
2022-07-27T04:05:06.433Z,75.76
2022-07-27T04:06:06.439Z,75.55
2022-07-27T04:07:06.414Z,75.25
2022-07-27T04:08:06.406Z,75.35
2022-07-27T04:09:08.099Z,75.55
2022-07-27T04:10:06.375Z,74.64
2022-07-27T04:11:06.373Z,74.33
2022-07-27T04:12:06.378Z,74.84
2022-07-27T04:13:06.352Z,75.15
2022-07-27T04:14:06.327Z,75.35
2022-07-27T04:15:06.320Z,76.36
2022-07-27T04:16:06.326Z,75.85
2022-07-27T04:17:06.395Z,76.06
2022-07-27T04:18:06.312Z,76.46
2022-07-27T04:19:06.265Z,76.26
2022-07-27T04:20:06.295Z,76.56
2022-07-27T04:21:06.275Z,76.63
2022-07-27T04:22:06.233Z,76.67
2022-07-27T04:23:06.223Z,76.56
2022-07-27T04:24:06.241Z,76.97
2022-07-27T04:25:06.200Z,76.97
2022-07-27T04:26:06.217Z,76.26
2022-07-27T04:27:06.181Z,75.65
2022-07-27T04:28:06.164Z,76.06
2022-07-27T04:29:06.162Z,75.85
2022-07-27T04:30:09.548Z,75.55
2022-07-27T04:31:06.208Z,76.87
2022-07-27T04:32:06.148Z,76.60
2022-07-27T04:33:06.237Z,75.35
2022-07-27T04:34:06.132Z,75.65
2022-07-27T04:35:06.093Z,76.26
2022-07-27T04:36:06.133Z,76.36
2022-07-27T04:37:06.077Z,76.46
2022-07-27T04:38:06.057Z,76.36
2022-07-27T04:39:06.070Z,76.67
2022-07-27T04:40:06.052Z,76.36
2022-07-27T04:41:06.045Z,76.77
2022-07-27T04:42:06.005Z,76.50
2022-07-27T04:43:05.996Z,76.50
2022-07-27T04:44:05.994Z,76.60
2022-07-27T04:45:05.978Z,76.46
2022-07-27T04:46:06.505Z,76.67
2022-07-27T04:47:05.976Z,76.70
2022-07-27T04:48:05.941Z,76.56
2022-07-27T04:49:06.005Z,76.36
2022-07-27T04:50:05.930Z,76.60
2022-07-27T04:51:06.074Z,75.85
2022-07-27T04:52:05.922Z,75.69
2022-07-27T04:53:05.899Z,75.59
2022-07-27T04:54:05.910Z,75.55
2022-07-27T04:55:05.876Z,75.89
2022-07-27T04:56:05.880Z,76.46
2022-07-27T04:57:05.880Z,76.36
2022-07-27T04:58:05.835Z,76.67
2022-07-27T04:59:05.820Z,76.67
2022-07-27T05:00:05.856Z,75.76
2022-07-27T05:01:05.873Z,76.67
2022-07-27T05:02:05.798Z,76.36
2022-07-27T05:03:05.783Z,76.36
2022-07-27T05:04:05.882Z,75.76
2022-07-27T05:05:05.773Z,75.96
2022-07-27T05:06:05.752Z,75.65
2022-07-27T05:07:05.738Z,75.76
2022-07-27T05:08:05.718Z,75.35
2022-07-27T05:09:05.713Z,75.55
2022-07-27T05:10:05.701Z,75.42
2022-07-27T05:11:05.702Z,75.11
2022-07-27T05:12:05.772Z,74.81
2022-07-27T05:13:07.417Z,74.81
2022-07-27T05:14:05.656Z,74.60
2022-07-27T05:15:05.635Z,74.81
2022-07-27T05:16:05.867Z,74.30
2022-07-27T05:17:05.637Z,74.71
2022-07-27T05:18:05.612Z,74.40
2022-07-27T05:19:05.624Z,73.96
2022-07-27T05:20:05.585Z,74.37
2022-07-27T05:21:05.586Z,74.16
2022-07-27T05:22:05.579Z,74.27
2022-07-27T05:23:05.578Z,74.27
2022-07-27T05:24:05.538Z,73.56
2022-07-27T05:25:05.526Z,73.66
2022-07-27T05:26:05.586Z,73.36
2022-07-27T05:27:05.515Z,73.46
2022-07-27T05:28:05.494Z,73.76
2022-07-27T05:29:05.477Z,73.36
2022-07-27T05:30:05.467Z,74.13
2022-07-27T05:31:05.461Z,73.66
2022-07-27T05:32:05.528Z,73.36
2022-07-27T05:33:05.449Z,73.46
2022-07-27T05:34:05.420Z,73.66
2022-07-27T05:35:05.412Z,74.16
2022-07-27T05:36:07.802Z,74.43
2022-07-27T05:37:05.388Z,73.52
2022-07-27T05:38:05.380Z,74.03
2022-07-27T05:39:08.132Z,73.96
2022-07-27T05:40:06.355Z,74.37
2022-07-27T05:41:05.369Z,74.23
2022-07-27T05:42:05.333Z,73.72
2022-07-27T05:43:05.322Z,74.03
2022-07-27T05:44:05.316Z,73.15
2022-07-27T05:45:05.306Z,73.72
2022-07-27T05:46:05.357Z,73.32
2022-07-27T05:47:06.212Z,73.43
2022-07-27T05:48:05.278Z,73.43
2022-07-27T05:49:05.320Z,73.02
2022-07-27T05:50:05.245Z,73.52
2022-07-27T05:51:05.248Z,73.32
2022-07-27T05:52:05.218Z,73.32
2022-07-27T05:53:05.207Z,74.23
2022-07-27T05:54:05.195Z,73.83
2022-07-27T05:55:05.186Z,74.13
2022-07-27T05:56:05.188Z,76.26
2022-07-27T05:57:05.168Z,79.49
2022-07-27T05:58:05.177Z,81.31
2022-07-27T05:59:07.396Z,82.53
2022-07-27T06:00:05.137Z,82.83
2022-07-27T06:01:05.337Z,83.54
2022-07-27T06:02:05.108Z,84.48
2022-07-27T06:03:05.119Z,85.39
2022-07-27T06:04:05.161Z,85.80
2022-07-27T06:05:05.077Z,85.64
2022-07-27T06:06:05.072Z,86.76
2022-07-27T06:07:05.056Z,86.55
2022-07-27T06:08:05.040Z,86.45
2022-07-27T06:09:05.030Z,86.65
2022-07-27T06:10:05.021Z,87.05
2022-07-27T06:11:05.028Z,87.77
2022-07-27T06:12:04.992Z,88.31
2022-07-27T06:13:04.985Z,89.02
2022-07-27T06:14:04.999Z,88.72
2022-07-27T06:15:04.967Z,88.92
2022-07-27T06:16:05.018Z,89.12
2022-07-27T06:17:04.963Z,89.53
2022-07-27T06:18:04.937Z,89.37
2022-07-27T06:19:04.914Z,89.87
2022-07-27T06:20:04.904Z,90.54
2022-07-27T06:21:04.899Z,90.44
2022-07-27T06:22:04.910Z,90.24
2022-07-27T06:23:07.814Z,90.79
2022-07-27T06:24:04.859Z,90.44
2022-07-27T06:25:04.847Z,91.35
2022-07-27T06:26:04.844Z,90.69
2022-07-27T06:27:04.840Z,90.79
2022-07-27T06:28:04.852Z,91.60
2022-07-27T06:29:10.396Z,91.75
2022-07-27T06:30:05.796Z,92.00
2022-07-27T06:31:04.808Z,92.00
2022-07-27T06:32:04.880Z,91.80
2022-07-27T06:33:04.939Z,91.39
2022-07-27T06:34:08.193Z,91.94
2022-07-27T06:35:05.741Z,91.54
2022-07-27T06:36:04.720Z,91.94
2022-07-27T06:37:04.717Z,92.14
2022-07-27T06:38:04.696Z,91.34
2022-07-27T06:39:04.680Z,92.05
2022-07-27T06:40:04.676Z,91.85
2022-07-27T06:41:04.659Z,91.74
2022-07-27T06:42:04.665Z,91.13
2022-07-27T06:43:04.635Z,90.73
2022-07-27T06:44:04.631Z,91.54
2022-07-27T06:45:04.614Z,90.99
2022-07-27T06:46:04.619Z,90.28
2022-07-27T06:47:04.684Z,90.48
2022-07-27T06:48:04.588Z,90.18
2022-07-27T06:49:04.635Z,88.46
2022-07-27T06:50:04.559Z,88.86
2022-07-27T06:51:04.576Z,89.17
2022-07-27T06:52:04.544Z,88.21
2022-07-27T06:53:04.526Z,89.17
2022-07-27T06:54:04.512Z,88.82
2022-07-27T06:55:04.502Z,88.42
2022-07-27T06:56:04.582Z,88.82
2022-07-27T06:57:04.474Z,89.08
2022-07-27T06:58:04.465Z,88.78
2022-07-27T06:59:04.456Z,88.57
2022-07-27T07:00:04.457Z,87.56
2022-07-27T07:01:04.507Z,87.77
2022-07-27T07:02:04.430Z,86.85
2022-07-27T07:03:04.424Z,86.82
2022-07-27T07:04:04.476Z,86.71
2022-07-27T07:05:04.393Z,86.71
2022-07-27T07:06:04.408Z,87.12
2022-07-27T07:07:07.272Z,86.77
2022-07-27T07:08:04.358Z,86.57
2022-07-27T07:09:04.343Z,86.77
2022-07-27T07:10:04.335Z,85.66
2022-07-27T07:11:04.343Z,85.05
2022-07-27T07:12:04.309Z,85.16
2022-07-27T07:13:04.305Z,84.61
2022-07-27T07:14:04.285Z,83.80
2022-07-27T07:15:04.275Z,83.90
2022-07-27T07:16:04.345Z,83.19
2022-07-27T07:17:04.247Z,82.35
2022-07-27T07:18:04.248Z,81.54
2022-07-27T07:19:04.235Z,82.65
2022-07-27T07:20:04.218Z,82.65
2022-07-27T07:21:04.217Z,82.95
2022-07-27T07:22:04.200Z,82.85
2022-07-27T07:23:04.180Z,81.64
2022-07-27T07:24:04.181Z,80.19
2022-07-27T07:25:04.172Z,78.77
2022-07-27T07:26:04.165Z,78.57
2022-07-27T07:27:04.143Z,79.17
2022-07-27T07:28:04.138Z,79.17
2022-07-27T07:29:04.129Z,78.63
2022-07-27T07:30:04.111Z,77.83
2022-07-27T07:31:04.151Z,77.83
2022-07-27T07:32:04.088Z,78.53
2022-07-27T07:33:04.078Z,77.02
2022-07-27T07:34:04.062Z,76.78
2022-07-27T07:35:04.055Z,74.87
2022-07-27T07:36:12.633Z,74.16
2022-07-27T07:37:05.020Z,76.58
2022-07-27T07:38:04.019Z,76.28
2022-07-27T07:39:04.013Z,75.57
2022-07-27T07:40:25.365Z,75.94
2022-07-27T07:41:04.993Z,76.04
2022-07-27T07:42:03.969Z,74.43
2022-07-27T07:43:03.958Z,73.11
2022-07-27T07:44:03.949Z,72.88
2022-07-27T07:45:03.954Z,72.07
2022-07-27T07:46:04.014Z,71.37
2022-07-27T07:47:04.024Z,71.47
2022-07-27T07:48:03.917Z,72.88
2022-07-27T07:49:03.967Z,71.13
2022-07-27T07:50:03.877Z,71.44
2022-07-27T07:51:03.866Z,70.79
2022-07-27T07:52:03.882Z,70.19
2022-07-27T07:53:03.847Z,69.82
2022-07-27T07:54:03.831Z,69.79
2022-07-27T07:55:03.826Z,68.68
2022-07-27T07:56:03.819Z,66.77
2022-07-27T07:57:03.855Z,67.88
2022-07-27T07:58:03.793Z,68.08
2022-07-27T07:59:03.777Z,67.27
2022-07-27T08:00:03.776Z,66.47
2022-07-27T08:01:03.751Z,68.58
2022-07-27T08:02:03.834Z,68.48
2022-07-27T08:03:03.891Z,67.77
2022-07-27T08:04:03.722Z,68.38
2022-07-27T08:05:03.705Z,66.67
2022-07-27T08:06:03.704Z,66.77
2022-07-27T08:07:03.696Z,66.27
2022-07-27T08:08:03.677Z,66.43
2022-07-27T08:09:03.663Z,67.47
2022-07-27T08:10:03.680Z,67.64
2022-07-27T08:11:03.641Z,67.03
2022-07-27T08:12:03.643Z,67.68
2022-07-27T08:13:03.614Z,66.23
2022-07-27T08:14:03.601Z,66.33
2022-07-27T08:15:03.595Z,64.86
2022-07-27T08:16:03.710Z,65.83
2022-07-27T08:17:03.585Z,64.55
2022-07-27T08:18:03.550Z,64.55
2022-07-27T08:19:03.558Z,65.96
2022-07-27T08:20:03.531Z,64.75
2022-07-27T08:21:03.549Z,65.86
2022-07-27T08:22:03.517Z,65.86
2022-07-27T08:23:03.496Z,66.06
2022-07-27T08:24:03.516Z,64.75
2022-07-27T08:25:03.469Z,64.82
2022-07-27T08:26:07.734Z,64.72
2022-07-27T08:27:03.458Z,65.33
2022-07-27T08:28:03.440Z,66.33
2022-07-27T08:29:13.106Z,66.53
2022-07-27T08:30:04.421Z,64.42
2022-07-27T08:31:14.042Z,64.39
2022-07-27T08:32:05.957Z,63.39
2022-07-27T08:33:03.386Z,62.81
2022-07-27T08:34:03.373Z,62.71
2022-07-27T08:35:03.358Z,62.38
2022-07-27T08:36:03.366Z,63.01
2022-07-27T08:37:03.337Z,63.31
2022-07-27T08:38:03.335Z,61.90
2022-07-27T08:39:03.324Z,61.77
2022-07-27T08:40:38.755Z,63.79
2022-07-27T08:41:04.317Z,63.39
2022-07-27T08:42:03.296Z,63.65
2022-07-27T08:43:03.284Z,63.76
2022-07-27T08:44:03.263Z,64.33
2022-07-27T08:45:03.255Z,64.53
2022-07-27T08:46:03.393Z,64.40
2022-07-27T08:47:03.364Z,62.39
2022-07-27T08:48:03.231Z,63.02
2022-07-27T08:49:03.293Z,60.41
2022-07-27T08:50:03.206Z,61.11
2022-07-27T08:51:03.196Z,61.51
2022-07-27T08:52:03.168Z,60.94
2022-07-27T08:53:03.167Z,61.04
2022-07-27T08:54:03.165Z,61.61
2022-07-27T08:55:03.141Z,61.04
2022-07-27T08:56:03.150Z,61.94
2022-07-27T08:57:03.120Z,62.45
2022-07-27T08:58:03.879Z,61.54
2022-07-27T08:59:03.094Z,62.05
2022-07-27T09:00:03.087Z,60.94
2022-07-27T09:01:03.095Z,62.02
2022-07-27T09:02:03.685Z,63.17
2022-07-27T09:03:03.193Z,60.10
2022-07-27T09:04:03.043Z,57.06
2022-07-27T09:05:03.031Z,59.03
2022-07-27T09:06:03.039Z,57.98
2022-07-27T09:07:03.006Z,58.69
2022-07-27T09:08:02.999Z,56.39
2022-07-27T09:09:02.993Z,55.29
2022-07-27T09:10:02.982Z,55.19
2022-07-27T09:11:02.979Z,56.62
2022-07-27T09:12:02.949Z,55.82
2022-07-27T09:13:02.947Z,56.85
2022-07-27T09:14:02.928Z,58.35
2022-07-27T09:15:02.939Z,56.77
2022-07-27T09:16:20.056Z,56.87
2022-07-27T09:17:46.818Z,56.50
2022-07-27T09:18:03.952Z,58.58
2022-07-27T09:19:02.867Z,58.20
2022-07-27T09:20:02.858Z,58.20
2022-07-27T09:21:02.865Z,58.30
2022-07-27T09:22:02.848Z,58.03
2022-07-27T09:23:02.824Z,59.83
2022-07-27T09:24:02.810Z,59.96
2022-07-27T09:25:02.889Z,59.96
2022-07-27T09:26:07.865Z,60.47
2022-07-27T09:27:03.891Z,60.24
2022-07-27T09:28:02.781Z,59.33
2022-07-27T09:29:02.753Z,58.43
2022-07-27T09:30:02.760Z,58.43
2022-07-27T09:31:02.797Z,57.83
2022-07-27T09:32:02.733Z,57.13
2022-07-27T09:33:02.713Z,57.56
2022-07-27T09:34:02.763Z,56.73
2022-07-27T09:35:02.685Z,57.56
2022-07-27T09:36:02.671Z,58.59
2022-07-27T09:37:02.681Z,58.26
2022-07-27T09:38:02.670Z,59.09
2022-07-27T09:39:03.227Z,58.06
2022-07-27T09:40:02.642Z,55.02
2022-07-27T09:41:02.641Z,56.63
2022-07-27T09:42:03.220Z,55.13
2022-07-27T09:43:17.376Z,57.37
2022-07-27T09:44:34.625Z,56.49
2022-07-27T09:45:03.574Z,56.21
2022-07-27T09:46:02.570Z,52.37
2022-07-27T09:47:02.562Z,49.80
2022-07-27T09:48:02.566Z,52.44
2022-07-27T09:49:02.595Z,51.54
2022-07-27T09:50:02.522Z,51.03
2022-07-27T09:51:05.514Z,50.23
2022-07-27T09:52:03.742Z,46.41
2022-07-27T09:53:19.699Z,47.13
2022-07-27T09:54:03.478Z,46.00
2022-07-27T09:55:02.465Z,44.49
2022-07-27T09:56:02.455Z,42.88
2022-07-27T09:57:02.465Z,42.57
2022-07-27T09:58:02.428Z,42.09
2022-07-27T09:59:02.419Z,41.81
2022-07-27T10:00:02.413Z,44.13
2022-07-27T10:01:02.396Z,43.98
2022-07-27T10:02:02.457Z,45.98
2022-07-27T10:03:02.380Z,45.43
2022-07-27T10:04:02.413Z,45.87
2022-07-27T10:05:02.506Z,47.99
2022-07-27T10:06:02.343Z,49.70
2022-07-27T10:07:04.576Z,48.83
2022-07-27T10:08:02.316Z,49.85
2022-07-27T10:09:02.304Z,48.88
2022-07-27T10:10:02.312Z,50.49
2022-07-27T10:11:04.090Z,53.02
2022-07-27T10:12:03.288Z,52.34
2022-07-27T10:13:02.262Z,54.34
2022-07-27T10:14:02.273Z,54.84
2022-07-27T10:15:02.240Z,52.27
2022-07-27T10:16:02.326Z,52.69
2022-07-27T10:17:02.233Z,52.99
2022-07-27T10:18:06.941Z,54.60
2022-07-27T10:19:03.191Z,55.79
2022-07-27T10:20:02.186Z,54.32
2022-07-27T10:21:02.168Z,53.02
2022-07-27T10:22:02.161Z,52.72
2022-07-27T10:23:02.166Z,54.52
2022-07-27T10:24:02.137Z,55.12
2022-07-27T10:25:02.145Z,55.52
2022-07-27T10:26:02.118Z,54.92
2022-07-27T10:27:02.109Z,56.82
2022-07-27T10:28:02.112Z,54.42
2022-07-27T10:29:02.085Z,55.22
2022-07-27T10:30:02.086Z,55.02
2022-07-27T10:31:02.201Z,55.15
2022-07-27T10:32:02.047Z,55.55
2022-07-27T10:33:02.059Z,56.65
2022-07-27T10:34:02.025Z,57.15
2022-07-27T10:35:02.017Z,56.65
2022-07-27T10:36:02.004Z,55.05
2022-07-27T10:37:02.001Z,54.67
2022-07-27T10:38:01.990Z,54.05
2022-07-27T10:39:01.964Z,54.74
2022-07-27T10:40:01.980Z,54.24
2022-07-27T10:41:01.945Z,55.05
2022-07-27T10:42:01.935Z,56.45
2022-07-27T10:43:01.939Z,55.12
2022-07-27T10:44:01.913Z,55.15
2022-07-27T10:45:01.898Z,54.32
2022-07-27T10:46:03.058Z,53.55
2022-07-27T10:47:01.872Z,54.55
2022-07-27T10:48:01.891Z,54.44
2022-07-27T10:49:01.875Z,55.55
2022-07-27T10:50:01.842Z,54.85
2022-07-27T10:51:01.835Z,56.52
2022-07-27T10:52:01.831Z,55.52
2022-07-27T10:53:01.843Z,58.32
2022-07-27T10:54:17.038Z,55.82
2022-07-27T10:55:02.782Z,55.02
2022-07-27T10:56:01.797Z,55.32
2022-07-27T10:57:01.771Z,53.89
2022-07-27T10:58:01.790Z,53.77
2022-07-27T10:59:01.758Z,54.04
2022-07-27T11:00:12.397Z,53.34
2022-07-27T11:01:02.788Z,54.82
2022-07-27T11:02:01.898Z,53.31
2022-07-27T11:03:01.716Z,54.41
2022-07-27T11:04:01.757Z,52.12
2022-07-27T11:05:01.681Z,52.92
2022-07-27T11:06:21.938Z,52.44
2022-07-27T11:07:24.077Z,53.94
2022-07-27T11:08:35.393Z,55.07
2022-07-27T11:10:04.448Z,54.29
2022-07-27T11:11:01.616Z,55.09
2022-07-27T11:12:01.626Z,55.22
2022-07-27T11:13:09.923Z,54.82
2022-07-27T11:14:02.572Z,55.12
2022-07-27T11:15:01.593Z,55.24
2022-07-27T11:16:22.895Z,54.94
2022-07-27T11:17:48.617Z,55.37
2022-07-27T11:18:04.933Z,55.47
2022-07-27T11:19:01.728Z,57.68
2022-07-27T11:20:01.503Z,56.37
2022-07-27T11:21:04.592Z,56.87
2022-07-27T11:22:04.461Z,55.37
2022-07-27T11:24:02.477Z,57.17
2022-07-27T11:25:01.610Z,55.47
2022-07-27T11:26:01.440Z,58.58
2022-07-27T11:27:01.429Z,59.18
2022-07-27T11:28:02.416Z,56.65
2022-07-27T11:29:01.428Z,57.75
2022-07-27T11:30:01.394Z,57.35
2022-07-27T11:31:03.666Z,56.32
2022-07-27T11:32:01.429Z,57.02
2022-07-27T11:33:01.359Z,57.50
2022-07-27T11:34:01.378Z,55.49
2022-07-27T11:35:01.345Z,55.09
2022-07-27T11:36:01.335Z,53.79
2022-07-27T11:37:01.323Z,54.79
2022-07-27T11:38:01.321Z,55.09
2022-07-27T11:39:01.316Z,54.90
2022-07-27T11:40:03.321Z,55.09
2022-07-27T11:41:15.083Z,54.92
2022-07-27T11:42:08.369Z,55.42
2022-07-27T11:43:02.252Z,55.22
2022-07-27T11:44:01.259Z,56.05
2022-07-27T11:45:01.226Z,55.55
2022-07-27T11:46:01.264Z,56.95
2022-07-27T11:47:02.200Z,56.45
2022-07-27T11:48:01.199Z,56.95
2022-07-27T11:49:09.544Z,58.25
2022-07-27T11:50:02.325Z,54.94
2022-07-27T11:51:01.162Z,55.55
2022-07-27T11:52:01.145Z,56.87
2022-07-27T11:53:01.939Z,56.37
2022-07-27T11:54:01.152Z,55.87
2022-07-27T11:55:01.122Z,56.57
2022-07-27T11:56:01.103Z,56.77
2022-07-27T11:57:01.099Z,57.57
2022-07-27T11:58:01.083Z,57.17
2022-07-27T11:59:01.673Z,56.95
2022-07-27T12:00:01.062Z,55.35
2022-07-27T12:01:01.049Z,55.55
2022-07-27T12:02:01.154Z,58.85
2022-07-27T12:03:01.023Z,54.92
2022-07-27T12:04:01.058Z,54.92
2022-07-27T12:05:03.152Z,55.02
2022-07-27T12:06:00.995Z,54.62
2022-07-27T12:07:00.989Z,54.42
2022-07-27T12:08:00.968Z,54.62
2022-07-27T12:09:00.958Z,54.62
2022-07-27T12:10:00.970Z,53.24
2022-07-27T12:11:00.941Z,54.32
2022-07-27T12:12:00.935Z,52.84
2022-07-27T12:13:00.918Z,53.82
2022-07-27T12:14:00.905Z,52.94
2022-07-27T12:15:00.905Z,52.44
2022-07-27T12:16:00.883Z,53.22
2022-07-27T12:17:00.954Z,53.82
2022-07-27T12:18:00.870Z,52.62
2022-07-27T12:19:00.849Z,52.12
2022-07-27T12:20:00.856Z,52.69
2022-07-27T12:21:00.833Z,51.89
2022-07-27T12:22:00.814Z,52.69
2022-07-27T12:23:00.804Z,51.59
2022-07-27T12:24:00.786Z,51.89
2022-07-27T12:25:00.804Z,52.89
2022-07-27T12:26:00.766Z,54.97
2022-07-27T12:27:05.983Z,55.17
2022-07-27T12:28:01.746Z,55.47
2022-07-27T12:29:00.747Z,52.07
2022-07-27T12:30:00.742Z,53.97
2022-07-27T12:31:00.812Z,54.37
2022-07-27T12:32:00.706Z,52.49
2022-07-27T12:33:00.704Z,52.00
2022-07-27T12:34:06.203Z,53.09
2022-07-27T12:35:01.678Z,54.29
2022-07-27T12:36:00.668Z,55.09
2022-07-27T12:37:00.651Z,54.69
2022-07-27T12:38:00.655Z,54.77
2022-07-27T12:39:00.622Z,53.09
2022-07-27T12:40:00.630Z,56.57
2022-07-27T12:41:01.432Z,56.67
2022-07-27T12:42:00.580Z,52.67
2022-07-27T12:43:00.588Z,53.27
2022-07-27T12:44:00.566Z,52.87
2022-07-27T12:45:00.586Z,51.37
2022-07-27T12:46:00.679Z,52.55
2022-07-27T12:47:00.536Z,51.75
2022-07-27T12:48:00.534Z,52.34
2022-07-27T12:49:00.568Z,52.34
2022-07-27T12:50:00.523Z,51.94
2022-07-27T12:51:00.488Z,51.75
2022-07-27T12:52:00.475Z,54.64
2022-07-27T12:53:00.466Z,53.34
2022-07-27T12:54:00.454Z,52.04